createdAt,value
2023-04-04T00:02:08.688Z,4.70
2023-04-04T00:04:41.077Z,6.60
2023-04-04T00:07:13.462Z,6.30
2023-04-04T00:09:45.610Z,5.00
2023-04-04T00:12:17.983Z,5.30
2023-04-04T00:14:50.086Z,6.20
2023-04-04T00:17:22.328Z,6.40
2023-04-04T00:19:54.856Z,5.60
2023-04-04T00:22:27.174Z,6.30
2023-04-04T00:24:59.540Z,4.30
2023-04-04T00:27:32.102Z,5.10
2023-04-04T00:30:04.511Z,5.20
2023-04-04T00:32:36.881Z,5.00
2023-04-04T00:35:10.099Z,5.50
2023-04-04T00:37:42.863Z,4.80
2023-04-04T00:40:15.560Z,4.80
2023-04-04T00:42:47.903Z,3.40
2023-04-04T00:45:20.285Z,3.50
2023-04-04T00:47:53.709Z,5.20
2023-04-04T00:50:26.286Z,5.30
2023-04-04T00:52:58.425Z,5.70
2023-04-04T00:55:30.649Z,7.90
2023-04-04T00:58:03.110Z,6.50
2023-04-04T01:00:37.028Z,5.10
2023-04-04T01:03:12.931Z,4.50
2023-04-04T01:05:45.960Z,4.30
2023-04-04T01:08:22.929Z,4.20
2023-04-04T01:10:55.523Z,4.60
2023-04-04T01:13:28.873Z,5.40
2023-04-04T01:16:01.802Z,4.10
2023-04-04T01:18:36.514Z,4.70
2023-04-04T01:21:11.928Z,4.00
2023-04-04T01:23:53.247Z,4.00
2023-04-04T01:26:27.272Z,4.70
2023-04-04T01:29:01.979Z,3.50
2023-04-04T01:31:38.419Z,4.70
2023-04-04T01:34:19.021Z,4.40
2023-04-04T01:37:02.633Z,3.80
2023-04-04T01:39:43.236Z,3.90
2023-04-04T01:42:17.557Z,4.10
2023-04-04T01:44:57.878Z,4.10
2023-04-04T01:47:42.512Z,4.70
2023-04-04T01:50:19.227Z,4.30
2023-04-04T01:52:52.011Z,3.30
2023-04-04T01:55:24.096Z,4.70
2023-04-04T01:57:56.123Z,3.90
2023-04-04T02:00:28.464Z,4.70
2023-04-04T02:03:00.599Z,4.20
2023-04-04T02:05:32.624Z,3.80
2023-04-04T02:08:04.555Z,2.90
2023-04-04T02:10:40.295Z,3.70
2023-04-04T02:13:12.413Z,4.50
2023-04-04T02:15:44.702Z,3.80
2023-04-04T02:18:17.443Z,4.00
2023-04-04T02:20:55.994Z,3.90
2023-04-04T02:23:27.953Z,3.60
2023-04-04T02:26:00.090Z,4.40
2023-04-04T02:28:32.812Z,4.50
2023-04-04T02:31:05.288Z,5.00
2023-04-04T02:33:40.170Z,4.70
2023-04-04T02:36:13.353Z,4.80
2023-04-04T02:38:45.695Z,4.40
2023-04-04T02:41:18.009Z,3.80
2023-04-04T02:43:50.105Z,3.80
2023-04-04T02:46:23.461Z,4.30
2023-04-04T02:49:02.492Z,4.10
2023-04-04T02:51:35.007Z,4.40
2023-04-04T02:54:07.425Z,4.00
2023-04-04T02:56:44.318Z,4.70
2023-04-04T02:59:17.264Z,9.50
2023-04-04T03:01:49.455Z,8.30
2023-04-04T03:04:21.472Z,9.50
2023-04-04T03:06:54.180Z,12.00
2023-04-04T03:09:26.331Z,9.00
2023-04-04T03:11:58.618Z,8.60
2023-04-04T03:14:30.643Z,10.50
2023-04-04T03:17:03.879Z,8.00
2023-04-04T03:19:36.208Z,12.50
2023-04-04T03:22:08.360Z,13.90
2023-04-04T03:24:40.383Z,11.30
2023-04-04T03:27:12.753Z,11.80
2023-04-04T03:29:44.924Z,11.90
2023-04-04T03:32:18.459Z,9.30
2023-04-04T03:34:50.616Z,7.90
2023-04-04T03:37:23.079Z,9.00
2023-04-04T03:39:55.275Z,8.60
2023-04-04T03:42:28.166Z,7.40
2023-04-04T03:45:00.897Z,10.50
2023-04-04T03:47:35.904Z,8.90
2023-04-04T03:50:09.432Z,7.50
2023-04-04T03:52:43.410Z,8.80
2023-04-04T03:55:15.572Z,10.20
2023-04-04T03:57:47.946Z,8.50
2023-04-04T04:00:21.001Z,7.20
2023-04-04T04:02:53.694Z,9.00
2023-04-04T04:05:26.161Z,8.40
2023-04-04T04:07:58.287Z,10.00
2023-04-04T04:10:30.418Z,9.90
2023-04-04T04:13:03.019Z,7.60
2023-04-04T04:15:35.768Z,7.70
2023-04-04T04:18:09.804Z,5.70
2023-04-04T04:20:42.435Z,8.50
2023-04-04T04:23:14.841Z,10.80
2023-04-04T04:25:50.139Z,10.60
2023-04-04T04:28:33.239Z,9.70
2023-04-04T04:31:10.645Z,11.70
2023-04-04T04:33:52.374Z,8.00
2023-04-04T04:36:27.503Z,9.50
2023-04-04T04:39:06.416Z,7.50
2023-04-04T04:41:42.423Z,9.10
2023-04-04T04:44:16.388Z,8.00
2023-04-04T04:46:48.700Z,7.20
2023-04-04T04:49:21.651Z,8.30
2023-04-04T04:51:54.889Z,8.20
2023-04-04T04:54:27.719Z,6.70
2023-04-04T04:57:00.787Z,6.00
2023-04-04T04:59:33.545Z,8.30
2023-04-04T05:02:07.091Z,7.70
2023-04-04T05:04:45.356Z,6.70
2023-04-04T05:07:20.429Z,7.20
2023-04-04T05:09:53.423Z,8.80
2023-04-04T05:12:27.650Z,7.00
2023-04-04T05:14:59.911Z,5.80
2023-04-04T05:17:33.775Z,8.10
2023-04-04T05:20:09.914Z,6.20
2023-04-04T05:22:46.850Z,6.80
2023-04-04T05:25:22.719Z,6.90
2023-04-04T05:27:55.804Z,5.80
2023-04-04T05:30:29.038Z,6.90
2023-04-04T05:33:13.180Z,7.50
2023-04-04T05:35:49.374Z,5.60
2023-04-04T05:38:22.518Z,8.30
2023-04-04T05:40:57.977Z,7.00
2023-04-04T05:43:30.333Z,7.80
2023-04-04T05:46:06.682Z,6.60
2023-04-04T05:48:46.556Z,10.10
2023-04-04T05:51:19.249Z,7.90
2023-04-04T05:53:58.348Z,7.30
2023-04-04T05:56:34.935Z,7.50
2023-04-04T05:59:08.410Z,7.10
2023-04-04T06:01:45.973Z,8.50
2023-04-04T06:04:19.959Z,8.80
2023-04-04T06:06:52.127Z,9.80
2023-04-04T06:09:25.876Z,6.50
2023-04-04T06:11:58.209Z,6.30
2023-04-04T06:14:30.555Z,6.60
2023-04-04T06:17:04.371Z,7.80
2023-04-04T06:19:36.848Z,4.60
2023-04-04T06:22:08.949Z,6.60
2023-04-04T06:24:42.642Z,4.30
2023-04-04T06:27:17.142Z,7.10
2023-04-04T06:29:49.719Z,7.20
2023-04-04T06:32:25.866Z,5.00
2023-04-04T06:34:58.693Z,5.60
2023-04-04T06:37:46.368Z,6.40
2023-04-04T06:40:24.799Z,7.50
2023-04-04T06:42:58.677Z,7.30
2023-04-04T06:45:37.892Z,4.50
2023-04-04T06:48:10.127Z,5.50
2023-04-04T06:50:42.847Z,6.70
2023-04-04T06:53:18.636Z,5.30
2023-04-04T06:55:51.818Z,5.00
2023-04-04T06:58:24.038Z,5.40
2023-04-04T07:00:57.350Z,6.70
2023-04-04T07:03:29.658Z,5.60
2023-04-04T07:06:03.533Z,5.50
2023-04-04T07:08:36.835Z,5.70
2023-04-04T07:11:10.172Z,7.50
2023-04-04T07:13:42.394Z,3.50
2023-04-04T07:16:14.871Z,9.50
2023-04-04T07:18:46.995Z,10.00
2023-04-04T07:21:20.715Z,4.00
2023-04-04T07:23:53.579Z,4.90
2023-04-04T07:26:26.122Z,7.00
2023-04-04T07:28:58.503Z,5.50
2023-04-04T07:31:31.070Z,5.40
2023-04-04T07:34:03.786Z,5.60
2023-04-04T07:36:36.105Z,4.70
2023-04-04T07:39:08.357Z,6.70
2023-04-04T07:41:41.302Z,5.30
2023-04-04T07:44:13.397Z,4.90
2023-04-04T07:46:49.911Z,5.60
2023-04-04T07:49:28.081Z,9.80
2023-04-04T07:52:00.265Z,6.90
2023-04-04T07:54:32.539Z,4.20
2023-04-04T07:57:06.139Z,4.50
2023-04-04T07:59:39.008Z,4.60
2023-04-04T08:02:11.150Z,8.10
2023-04-04T08:04:43.329Z,9.40
2023-04-04T08:07:15.427Z,11.90
2023-04-04T08:09:47.475Z,6.40
2023-04-04T08:12:19.662Z,4.50
2023-04-04T08:14:52.272Z,3.30
2023-04-04T08:17:24.893Z,4.50
2023-04-04T08:19:57.067Z,3.30
2023-04-04T08:22:29.184Z,3.30
2023-04-04T08:25:01.851Z,4.00
2023-04-04T08:27:34.319Z,5.10
2023-04-04T08:30:09.451Z,4.50
2023-04-04T08:32:42.517Z,4.00
2023-04-04T08:35:14.807Z,4.30
2023-04-04T08:37:48.943Z,4.10
2023-04-04T08:40:21.441Z,3.30
2023-04-04T08:42:54.704Z,5.40
2023-04-04T08:45:29.296Z,3.70
2023-04-04T08:48:02.586Z,3.30
2023-04-04T08:50:37.195Z,5.60
2023-04-04T08:53:10.812Z,7.90
2023-04-04T08:55:44.635Z,10.80
2023-04-04T08:58:17.958Z,12.80
2023-04-04T09:00:50.060Z,6.30
2023-04-04T09:03:27.672Z,2.80
2023-04-04T09:06:00.999Z,2.60
2023-04-04T09:08:33.986Z,3.20
2023-04-04T09:11:07.185Z,2.80
2023-04-04T09:13:41.472Z,3.20
2023-04-04T09:16:14.390Z,2.80
2023-04-04T09:18:47.529Z,3.30
2023-04-04T09:21:22.716Z,2.90
2023-04-04T09:24:03.416Z,2.40
2023-04-04T09:26:49.727Z,3.30
2023-04-04T09:29:22.923Z,2.20
2023-04-04T09:31:55.210Z,7.60
2023-04-04T09:34:29.987Z,7.40
2023-04-04T09:37:02.331Z,6.00
2023-04-04T09:39:35.668Z,6.60
2023-04-04T09:42:10.090Z,5.10
2023-04-04T09:44:42.413Z,4.00
2023-04-04T09:47:35.551Z,4.70
2023-04-04T09:50:17.931Z,7.70
2023-04-04T09:52:51.445Z,7.70
2023-04-04T09:55:29.722Z,5.50
2023-04-04T09:58:05.931Z,8.40
2023-04-04T10:00:45.138Z,9.30
2023-04-04T10:03:20.037Z,6.10
2023-04-04T10:06:00.414Z,9.80
2023-04-04T10:08:33.359Z,34.00
2023-04-04T10:11:11.861Z,11.60
2023-04-04T10:13:46.875Z,9.10
2023-04-04T10:16:20.075Z,6.90
2023-04-04T10:18:53.509Z,7.10
2023-04-04T10:21:25.499Z,5.70
2023-04-04T10:24:00.248Z,15.20
2023-04-04T10:26:32.398Z,5.10
2023-04-04T10:29:06.025Z,4.70
2023-04-04T10:31:44.909Z,4.70
2023-04-04T10:34:23.339Z,9.90
2023-04-04T10:37:12.852Z,8.30
2023-04-04T10:39:53.507Z,10.00
2023-04-04T10:42:27.394Z,10.60
2023-04-04T10:45:16.947Z,8.00
2023-04-04T10:47:52.939Z,9.70
2023-04-04T10:50:27.319Z,9.70
2023-04-04T10:53:02.403Z,9.70
2023-04-04T10:55:35.789Z,7.20
2023-04-04T10:58:09.081Z,5.60
2023-04-04T11:00:55.561Z,3.90
2023-04-04T11:03:27.963Z,6.10
2023-04-04T11:06:02.005Z,6.80
2023-04-04T11:08:37.673Z,5.90
2023-04-04T11:11:21.915Z,3.30
2023-04-04T11:14:06.427Z,7.10
2023-04-04T11:16:52.903Z,5.40
2023-04-04T11:19:25.742Z,4.30
2023-04-04T11:22:00.188Z,6.40
2023-04-04T11:24:32.273Z,4.80
2023-04-04T11:27:07.987Z,5.10
2023-04-04T11:29:54.358Z,4.70
2023-04-04T11:32:47.829Z,4.50
2023-04-04T11:35:26.551Z,6.20
2023-04-04T11:38:04.894Z,5.40
2023-04-04T11:40:41.939Z,5.70
2023-04-04T11:43:17.236Z,3.00
2023-04-04T11:45:50.905Z,5.40
2023-04-04T11:48:23.942Z,8.00
2023-04-04T11:50:56.011Z,4.80
2023-04-04T11:53:29.311Z,15.20
2023-04-04T11:56:01.760Z,6.90
2023-04-04T11:58:37.763Z,6.10
2023-04-04T12:01:10.199Z,6.20
2023-04-04T12:03:42.865Z,3.60
2023-04-04T12:06:17.397Z,3.70
2023-04-04T12:08:50.514Z,3.90
2023-04-04T12:11:23.708Z,5.50
2023-04-04T12:13:56.073Z,4.50
2023-04-04T12:16:28.826Z,4.70
2023-04-04T12:19:03.965Z,3.80
2023-04-04T12:21:36.189Z,4.70
2023-04-04T12:24:09.921Z,4.70
2023-04-04T12:26:44.168Z,2.60
2023-04-04T12:29:18.820Z,3.50
2023-04-04T12:31:53.588Z,3.40
2023-04-04T12:34:34.020Z,3.50
2023-04-04T12:37:11.468Z,3.00
2023-04-04T12:39:51.056Z,4.30
2023-04-04T12:42:27.363Z,4.10
2023-04-04T12:47:32.978Z,3.50
2023-04-04T12:50:05.187Z,3.40
2023-04-04T12:52:42.705Z,4.00
2023-04-04T12:55:21.934Z,4.50
2023-04-04T12:57:55.915Z,4.20
2023-04-04T13:00:29.918Z,13.10
2023-04-04T13:03:02.060Z,27.10
2023-04-04T13:05:37.107Z,27.40
2023-04-04T13:08:11.586Z,22.10
2023-04-04T13:11:06.222Z,4.50
2023-04-04T13:13:41.732Z,3.80
2023-04-04T13:16:16.165Z,6.90
2023-04-04T13:18:48.622Z,4.90
2023-04-04T13:21:21.557Z,8.70
2023-04-04T13:23:53.981Z,6.50
2023-04-04T13:26:26.501Z,3.90
2023-04-04T13:28:59.828Z,4.50
2023-04-04T13:31:32.450Z,3.50
2023-04-04T13:34:04.596Z,4.10
2023-04-04T13:36:36.625Z,5.50
2023-04-04T13:39:09.130Z,4.80
2023-04-04T13:41:41.537Z,4.30
2023-04-04T13:44:14.714Z,5.20
2023-04-04T13:46:46.756Z,7.50
2023-04-04T13:49:18.868Z,4.60
2023-04-04T13:51:52.474Z,5.20
2023-04-04T13:54:24.761Z,4.20
2023-04-04T13:56:57.405Z,3.80
2023-04-04T13:59:29.579Z,4.50
2023-04-04T14:02:02.179Z,3.50
2023-04-04T14:04:34.604Z,5.50
2023-04-04T14:07:07.298Z,4.30
2023-04-04T14:09:39.867Z,3.60
2023-04-04T14:14:49.460Z,4.60
2023-04-04T14:17:21.756Z,4.40
2023-04-04T14:19:53.908Z,5.40
2023-04-04T14:22:26.100Z,4.40
2023-04-04T14:24:58.377Z,4.00
2023-04-04T14:27:31.490Z,3.70
2023-04-04T14:30:03.974Z,7.00
2023-04-04T14:32:36.112Z,3.90
2023-04-04T14:35:09.238Z,4.40
2023-04-04T14:37:41.405Z,8.90
2023-04-04T14:40:14.193Z,4.50
2023-04-04T14:42:48.604Z,4.40
2023-04-04T14:45:21.181Z,10.60
2023-04-04T14:47:53.380Z,5.10
2023-04-04T14:50:25.802Z,4.60
2023-04-04T14:53:00.673Z,4.20
2023-04-04T14:55:34.582Z,6.20
2023-04-04T14:58:07.144Z,4.60
2023-04-04T15:00:39.778Z,7.90
2023-04-04T15:03:12.196Z,8.50
2023-04-04T15:05:44.571Z,6.90
2023-04-04T15:08:16.724Z,4.20
2023-04-04T15:10:49.073Z,4.50
2023-04-04T15:13:21.748Z,4.90
2023-04-04T15:15:54.482Z,5.30
2023-04-04T15:18:26.728Z,4.30
2023-04-04T15:20:59.816Z,4.20
2023-04-04T15:23:32.516Z,4.80
2023-04-04T15:26:04.581Z,4.40
2023-04-04T15:28:36.809Z,4.20
2023-04-04T15:31:09.370Z,5.30
2023-04-04T15:33:41.750Z,4.30
2023-04-04T15:36:14.071Z,4.00
2023-04-04T15:38:46.564Z,4.60
2023-04-04T15:41:19.069Z,5.00
2023-04-04T15:43:51.616Z,8.00
2023-04-04T15:46:23.814Z,5.00
2023-04-04T15:48:56.348Z,6.50
2023-04-04T15:51:29.360Z,3.60
2023-04-04T15:54:01.590Z,4.20
2023-04-04T15:56:34.011Z,5.00
2023-04-04T15:59:06.429Z,8.60
2023-04-04T16:01:40.932Z,16.10
2023-04-04T16:04:13.106Z,12.00
2023-04-04T16:06:45.270Z,13.80
2023-04-04T16:09:17.432Z,12.10
2023-04-04T16:11:49.957Z,8.80
2023-04-04T16:14:22.057Z,9.50
2023-04-04T16:16:54.245Z,8.90
2023-04-04T16:19:26.283Z,9.40
2023-04-04T16:21:59.170Z,12.80
2023-04-04T16:24:31.336Z,9.50
2023-04-04T16:27:03.334Z,10.30
2023-04-04T16:29:38.349Z,12.00
2023-04-04T16:32:13.091Z,12.30
2023-04-04T16:34:45.133Z,9.20
2023-04-04T16:37:17.335Z,15.40
2023-04-04T16:39:51.105Z,9.80
2023-04-04T16:42:24.949Z,14.10
2023-04-04T16:44:57.188Z,9.40
2023-04-04T16:47:29.478Z,7.70
2023-04-04T16:50:01.495Z,8.60
2023-04-04T16:52:33.538Z,15.60
2023-04-04T16:55:06.414Z,64.80
2023-04-04T16:57:38.577Z,56.90
2023-04-04T17:00:14.080Z,37.80
2023-04-04T17:02:46.984Z,48.70
2023-04-04T17:05:19.745Z,47.40
2023-04-04T17:07:52.423Z,37.30
2023-04-04T17:10:25.034Z,34.40
2023-04-04T17:12:57.354Z,37.50
2023-04-04T17:15:29.940Z,40.40
2023-04-04T17:18:02.358Z,38.00
2023-04-04T17:20:35.245Z,25.60
2023-04-04T17:23:07.898Z,22.50
2023-04-04T17:25:39.966Z,32.50
2023-04-04T17:28:12.327Z,29.40
2023-04-04T17:30:44.750Z,22.70
2023-04-04T17:33:18.529Z,18.10
2023-04-04T17:35:51.361Z,12.90
2023-04-04T17:38:23.886Z,12.20
2023-04-04T17:40:56.392Z,10.60
2023-04-04T17:43:28.667Z,11.30
2023-04-04T17:46:02.813Z,13.40
2023-04-04T17:48:36.977Z,12.20
2023-04-04T17:51:09.747Z,11.70
2023-04-04T17:53:42.468Z,11.60
2023-04-04T17:56:16.100Z,11.50
2023-04-04T17:58:48.631Z,11.00
2023-04-04T18:01:21.831Z,10.30
2023-04-04T18:03:53.987Z,9.90
2023-04-04T18:06:27.371Z,12.10
2023-04-04T18:09:00.057Z,12.90
2023-04-04T18:11:34.287Z,13.20
2023-04-04T18:14:06.429Z,45.40
2023-04-04T18:16:41.071Z,57.70
2023-04-04T18:19:13.781Z,68.40
2023-04-04T18:21:49.816Z,56.60
2023-04-04T18:24:21.904Z,74.60
2023-04-04T18:26:54.107Z,86.60
2023-04-04T18:29:27.032Z,72.80
2023-04-04T18:32:02.868Z,68.40
2023-04-04T18:34:35.872Z,64.60
2023-04-04T18:37:08.104Z,58.80
2023-04-04T18:39:40.768Z,54.90
2023-04-04T18:42:13.270Z,42.20
2023-04-04T18:44:45.967Z,26.20
2023-04-04T18:47:18.382Z,23.40
2023-04-04T18:49:51.424Z,23.90
2023-04-04T18:52:36.378Z,39.00
2023-04-04T18:55:11.164Z,43.00
2023-04-04T18:57:44.460Z,16.40
2023-04-04T19:00:19.713Z,10.30
2023-04-04T19:02:56.416Z,15.10
2023-04-04T19:05:32.917Z,11.00
2023-04-04T19:08:08.453Z,9.60
2023-04-04T19:10:45.246Z,8.00
2023-04-04T19:13:17.956Z,9.40
2023-04-04T19:15:50.472Z,9.20
2023-04-04T19:18:22.768Z,22.70
2023-04-04T19:20:55.363Z,25.10
2023-04-04T19:23:28.865Z,19.40
2023-04-04T19:26:02.568Z,15.50
2023-04-04T19:28:35.190Z,13.90
2023-04-04T19:31:11.943Z,14.70
2023-04-04T19:33:44.664Z,14.90
2023-04-04T19:36:16.843Z,15.40
2023-04-04T19:38:50.267Z,14.60
2023-04-04T19:41:37.198Z,13.70
2023-04-04T19:44:19.382Z,12.70
2023-04-04T19:46:53.151Z,11.00
2023-04-04T19:49:30.746Z,15.70
2023-04-04T19:52:05.806Z,20.10
2023-04-04T19:54:42.687Z,22.50
2023-04-04T19:57:21.206Z,23.00
2023-04-04T20:00:02.004Z,23.90
2023-04-04T20:03:01.854Z,30.40
2023-04-04T20:05:57.711Z,43.90
2023-04-04T20:08:41.227Z,56.60
2023-04-04T20:11:14.504Z,44.20
2023-04-04T20:13:47.532Z,43.50
2023-04-04T20:16:22.250Z,41.20
2023-04-04T20:18:54.902Z,36.40
2023-04-04T20:21:28.873Z,31.70
2023-04-04T20:24:04.411Z,16.60
2023-04-04T20:26:58.348Z,14.60
2023-04-04T20:29:31.718Z,14.20
2023-04-04T20:32:06.658Z,13.30
2023-04-04T20:34:45.747Z,12.70
2023-04-04T20:37:20.319Z,13.50
2023-04-04T20:39:55.930Z,16.30
2023-04-04T20:42:44.652Z,15.50
2023-04-04T20:45:47.131Z,21.50
2023-04-04T20:48:40.144Z,24.20
2023-04-04T20:51:30.986Z,23.70
2023-04-04T20:54:04.541Z,25.80
2023-04-04T20:56:56.668Z,26.50
2023-04-04T20:59:38.733Z,30.30
2023-04-04T21:02:18.821Z,30.40
2023-04-04T21:04:52.300Z,30.30
2023-04-04T21:07:43.786Z,33.80
2023-04-04T21:10:46.634Z,34.00
2023-04-04T21:13:20.048Z,30.20
2023-04-04T21:15:52.182Z,20.70
2023-04-04T21:18:28.510Z,21.10
2023-04-04T21:21:18.799Z,21.90
2023-04-04T21:23:56.097Z,23.60
2023-04-04T21:26:36.661Z,24.10
2023-04-04T21:29:11.691Z,26.20
2023-04-04T21:31:44.393Z,27.10
2023-04-04T21:34:20.016Z,35.20
2023-04-04T21:36:56.072Z,41.10
2023-04-04T21:39:30.948Z,40.10
2023-04-04T21:42:07.773Z,41.80
2023-04-04T21:44:40.629Z,43.00
2023-04-04T21:47:13.919Z,41.30
2023-04-04T21:49:47.509Z,41.50
2023-04-04T21:52:19.685Z,42.80
2023-04-04T21:54:51.799Z,40.80
2023-04-04T21:57:23.826Z,39.60
2023-04-04T21:59:55.862Z,42.30
2023-04-04T22:02:27.995Z,42.40
2023-04-04T22:05:00.671Z,44.00
2023-04-04T22:07:33.384Z,46.80
2023-04-04T22:10:09.067Z,44.40
2023-04-04T22:12:42.850Z,43.20
2023-04-04T22:15:17.674Z,50.00
2023-04-04T22:17:55.097Z,47.40
2023-04-04T22:20:27.581Z,41.20
2023-04-04T22:23:00.103Z,41.10
2023-04-04T22:25:33.981Z,44.10
2023-04-04T22:28:08.653Z,44.50
2023-04-04T22:30:42.659Z,44.10
2023-04-04T22:33:15.347Z,44.10
2023-04-04T22:35:47.613Z,48.50
2023-04-04T22:38:20.155Z,49.10
2023-04-04T22:40:52.600Z,46.80
2023-04-04T22:43:25.809Z,48.50
2023-04-04T22:45:58.520Z,50.00
2023-04-04T22:48:31.349Z,46.50
2023-04-04T22:51:03.550Z,43.80
2023-04-04T22:53:35.901Z,39.70
2023-04-04T22:56:08.764Z,40.20
2023-04-04T22:58:41.050Z,41.70
2023-04-04T23:01:13.373Z,40.10
2023-04-04T23:03:45.704Z,34.60
2023-04-04T23:06:19.788Z,37.60
2023-04-04T23:08:52.473Z,32.00
2023-04-04T23:11:24.723Z,31.30
2023-04-04T23:13:58.090Z,26.80
2023-04-04T23:16:31.048Z,26.90
2023-04-04T23:19:03.280Z,27.40
2023-04-04T23:21:35.393Z,24.90
2023-04-04T23:24:08.699Z,25.40
2023-04-04T23:26:40.965Z,24.30
2023-04-04T23:29:13.006Z,23.70
2023-04-04T23:31:45.122Z,22.90
2023-04-04T23:34:17.447Z,25.20
2023-04-04T23:36:49.492Z,22.50
2023-04-04T23:39:21.461Z,24.90
2023-04-04T23:41:53.567Z,22.90
2023-04-04T23:44:26.361Z,22.90
2023-04-04T23:46:58.762Z,22.40
2023-04-04T23:49:31.050Z,23.00
2023-04-04T23:52:03.400Z,22.30
2023-04-04T23:54:35.804Z,25.50
2023-04-04T23:57:07.830Z,24.40
2023-04-04T23:59:39.974Z,21.70
